Time;durP1;ratioP1;P1;durP2;ratioP2;P2;SDS_P1;SDS_P2;PMS_P1;PMS_P2;Temp;Humidity;BMP_temperature;BMP_pressure;BME280_temperature;BME280_humidity;BME280_pressure;Samples;Min_cycle;Max_cycle;Signal;HPM_P1;HPM_P2
2022/06/23 00:00:49;;;;;;;;;;;;;;;27.28;43.29;98466.47;2046461;28;20009;-72
2022/06/23 00:01:50;;;;;;;;;;;;;;;27.28;43.14;98470.00;2047212;28;20171;-72
2022/06/23 00:02:53;;;;;;;;;;;;;;;27.26;43.08;98472.16;2042548;28;20407;-72
2022/06/23 00:03:55;;;;;;;;;;;;;;;27.25;42.83;98473.25;2050874;28;20039;-73
2022/06/23 00:04:59;;;;;;;;;;;;;;;27.24;43.04;98470.78;2049371;28;19934;-73
2022/06/23 00:06:01;;;;;;;;;;;;;;;27.21;42.83;98463.16;2049150;28;19933;-73
2022/06/23 00:07:05;;;;;;;;;;;;;;;27.18;43.13;98465.31;2049883;28;20338;-73
2022/06/23 00:08:08;;;;;;;;;;;;;;;27.18;42.70;98470.75;2047396;28;20270;-74
2022/06/23 00:09:28;;;;;;;;;;;;;;;27.19;42.86;98463.41;2045267;28;19956;-72
2022/06/23 00:10:34;;;;;;;;;;;;;;;27.20;42.86;98467.78;2043381;28;20344;-73
2022/06/23 00:11:35;;;;;;;;;;;;;;;27.21;43.16;98463.16;2047359;28;20327;-73
2022/06/23 00:12:37;;;;;;;;;;;;;;;27.21;42.77;98474.03;2045730;28;19937;-73
2022/06/23 00:13:39;;;;;;;;;;;;;;;27.21;42.86;98469.41;2043658;28;20296;-73
2022/06/23 00:14:39;;;;;;;;;;;;;;;27.22;43.35;98470.22;2038911;28;19933;-73
2022/06/23 00:15:42;;;;;;;;;;;;;;;27.19;43.18;98477.00;2056942;28;20052;-74
2022/06/23 00:16:44;;;;;;;;;;;;;;;27.17;43.16;98469.13;2056258;28;19929;-74
2022/06/23 00:17:48;;;;;;;;;;;;;;;27.15;43.09;98479.41;2044213;28;20296;-74
2022/06/23 00:18:49;;;;;;;;;;;;;;;27.13;43.24;98478.84;2040109;28;20205;-72
2022/06/23 00:19:52;;;;;;;;;;;;;;;27.15;42.79;98482.16;2043164;28;20540;-72
2022/06/23 00:21:01;;;;;;;;;;;;;;;27.13;43.10;98484.31;2044418;28;19929;-73
2022/06/23 00:22:02;;;;;;;;;;;;;;;27.15;42.74;98487.59;2049634;28;20315;-74
2022/06/23 00:23:07;;;;;;;;;;;;;;;27.16;42.79;98485.72;2044990;28;19934;-73
2022/06/23 00:24:15;;;;;;;;;;;;;;;27.17;42.85;98487.38;2045036;28;19933;-72
2022/06/23 00:25:23;;;;;;;;;;;;;;;27.13;43.24;98484.31;2045357;28;19996;-72
2022/06/23 00:26:27;;;;;;;;;;;;;;;27.14;43.27;98490.59;2041222;28;20056;-72
2022/06/23 00:27:29;;;;;;;;;;;;;;;27.14;42.89;98487.88;2042170;28;19934;-71
2022/06/23 00:28:33;;;;;;;;;;;;;;;27.11;43.13;98478.31;2045386;28;20064;-73
2022/06/23 00:29:34;;;;;;;;;;;;;;;27.12;43.14;98476.41;2041184;28;19934;-72
2022/06/23 00:30:37;;;;;;;;;;;;;;;27.09;43.12;98485.09;2044351;28;19926;-73
2022/06/23 00:31:41;;;;;;;;;;;;;;;27.10;42.72;98486.75;2045349;28;19945;-72
2022/06/23 00:32:41;;;;;;;;;;;;;;;27.07;42.86;98479.09;2046069;28;19930;-73
2022/06/23 00:33:44;;;;;;;;;;;;;;;27.07;43.33;98485.34;2046151;28;19935;-72
2022/06/23 00:34:51;;;;;;;;;;;;;;;27.09;43.06;98487.84;2044171;28;20032;-72
2022/06/23 00:35:53;;;;;;;;;;;;;;;27.08;43.33;98484.28;2047740;28;20344;-72
2022/06/23 00:36:55;;;;;;;;;;;;;;;27.09;42.99;98485.09;2050179;28;19930;-72
2022/06/23 00:37:56;;;;;;;;;;;;;;;27.06;43.32;98485.63;2045950;28;19930;-73
2022/06/23 00:38:57;;;;;;;;;;;;;;;27.07;43.18;98487.25;2045652;28;19930;-74
2022/06/23 00:40:01;;;;;;;;;;;;;;;27.06;43.00;98489.19;2041744;28;19994;-72
2022/06/23 00:41:02;;;;;;;;;;;;;;;27.04;42.95;98488.59;2042877;28;19934;-74
2022/06/23 00:42:06;;;;;;;;;;;;;;;27.05;42.85;98486.69;2048751;28;19930;-74
2022/06/23 00:43:10;;;;;;;;;;;;;;;27.06;43.22;98491.09;2044969;28;21779;-73
2022/06/23 00:44:16;;;;;;;;;;;;;;;27.05;43.04;98489.44;2046408;28;19929;-73
2022/06/23 00:45:20;;;;;;;;;;;;;;;27.02;43.06;98487.22;2047934;28;19953;-73
2022/06/23 00:46:24;;;;;;;;;;;;;;;27.00;43.13;98489.41;2046793;28;19934;-74
2022/06/23 00:47:27;;;;;;;;;;;;;;;27.01;43.19;98491.03;2049233;28;19929;-73
2022/06/23 00:48:32;;;;;;;;;;;;;;;27.00;42.98;98489.41;2049310;28;19983;-73
2022/06/23 00:49:39;;;;;;;;;;;;;;;26.99;43.18;98494.00;2049510;28;20002;-72
2022/06/23 00:50:47;;;;;;;;;;;;;;;27.01;42.99;98489.13;2050156;28;19938;-72
2022/06/23 00:51:50;;;;;;;;;;;;;;;27.02;42.67;98481.78;2047963;28;20061;-71
2022/06/23 00:52:54;;;;;;;;;;;;;;;27.01;43.14;98483.69;2049975;28;21676;-72
2022/06/23 00:53:58;;;;;;;;;;;;;;;27.02;43.21;98482.59;2049862;28;20399;-73
2022/06/23 00:55:03;;;;;;;;;;;;;;;27.03;43.16;98486.97;2050221;28;19936;-72
2022/06/23 00:56:14;;;;;;;;;;;;;;;27.00;43.05;98484.78;2049178;28;20345;-73
2022/06/23 00:57:20;;;;;;;;;;;;;;;27.00;42.97;98483.97;2049096;28;20311;-72
2022/06/23 00:58:27;;;;;;;;;;;;;;;26.99;43.06;98482.31;2047699;28;19926;-73
2022/06/23 00:59:29;;;;;;;;;;;;;;;26.99;43.00;98488.56;2051453;28;19938;-72
2022/06/23 01:00:34;;;;;;;;;;;;;;;26.96;43.01;98483.66;2052550;28;19969;-73
2022/06/23 01:01:41;;;;;;;;;;;;;;;26.92;43.16;98477.94;2046458;28;19981;-73
2022/06/23 01:02:44;;;;;;;;;;;;;;;26.95;42.73;98487.47;2047844;28;19930;-72
2022/06/23 01:03:51;;;;;;;;;;;;;;;26.94;42.72;98477.66;2047230;28;19934;-72
2022/06/23 01:04:56;;;;;;;;;;;;;;;26.95;42.84;98471.94;2045395;28;20085;-72
2022/06/23 01:06:05;;;;;;;;;;;;;;;26.95;42.48;98480.13;2044445;28;20395;-73
2022/06/23 01:07:13;;;;;;;;;;;;;;;26.92;42.75;98482.56;2044076;28;20479;-72
2022/06/23 01:08:17;;;;;;;;;;;;;;;26.88;42.52;98471.34;2043660;28;20155;-72
2022/06/23 01:09:23;;;;;;;;;;;;;;;26.90;42.69;98482.00;2045919;28;20165;-72
2022/06/23 01:10:30;;;;;;;;;;;;;;;26.91;42.63;98476.28;2044118;28;20283;-73
2022/06/23 01:11:34;;;;;;;;;;;;;;;26.86;42.69;98478.97;2047516;28;19949;-73
2022/06/23 01:12:38;;;;;;;;;;;;;;;26.86;42.37;98481.69;2044351;28;20367;-72
2022/06/23 01:13:42;;;;;;;;;;;;;;;26.85;42.69;98477.31;2047483;28;19937;-72
2022/06/23 01:14:48;;;;;;;;;;;;;;;26.84;42.46;98480.31;2044873;28;19937;-73
2022/06/23 01:15:50;;;;;;;;;;;;;;;26.84;42.56;98474.88;2047700;28;19933;-72
2022/06/23 01:16:54;;;;;;;;;;;;;;;26.85;42.67;98477.31;2049433;28;20721;-72
2022/06/23 01:18:00;;;;;;;;;;;;;;;26.84;42.27;98470.25;2048294;28;20180;-73
2022/06/23 01:19:07;;;;;;;;;;;;;;;26.88;42.54;98475.97;2049581;28;20047;-73
2022/06/23 01:20:22;;;;;;;;;;;;;;;26.86;42.60;98472.72;2048951;28;19929;-72
2022/06/23 01:21:25;;;;;;;;;;;;;;;26.84;42.16;98477.59;2045404;28;19941;-72
2022/06/23 01:22:32;;;;;;;;;;;;;;;26.84;42.04;98478.41;2047564;28;19988;-71
2022/06/23 01:23:46;;;;;;;;;;;;;;;26.86;42.24;98476.25;2043622;28;20444;-71
2022/06/23 01:24:50;;;;;;;;;;;;;;;26.85;42.16;98480.03;2047596;28;20116;-74
2022/06/23 01:26:11;;;;;;;;;;;;;;;26.83;42.35;98484.94;2048689;28;19969;-73
2022/06/23 01:27:22;;;;;;;;;;;;;;;26.84;42.04;98483.84;2030962;28;19964;-72
2022/06/23 01:28:26;;;;;;;;;;;;;;;26.81;42.07;98487.09;2040459;28;20011;-72
2022/06/23 01:29:29;;;;;;;;;;;;;;;26.78;42.44;98487.63;2044178;28;20402;-73
2022/06/23 01:30:33;;;;;;;;;;;;;;;26.77;42.47;98480.53;2042011;28;19930;-72
2022/06/23 01:31:42;;;;;;;;;;;;;;;26.78;42.34;98482.19;2045917;28;19934;-72
2022/06/23 01:32:44;;;;;;;;;;;;;;;26.79;41.93;98477.56;2044206;28;19983;-73
2022/06/23 01:33:48;;;;;;;;;;;;;;;26.77;42.24;98475.09;2039884;28;19930;-73
2022/06/23 01:34:54;;;;;;;;;;;;;;;26.79;42.09;98478.38;2042573;28;20657;-72
2022/06/23 01:35:59;;;;;;;;;;;;;;;26.76;41.86;98473.44;2042500;28;19930;-73
2022/06/23 01:37:02;;;;;;;;;;;;;;;26.73;42.33;98479.41;2042130;28;19953;-72
2022/06/23 01:38:09;;;;;;;;;;;;;;;26.74;42.22;98487.34;2047799;28;19930;-72
2022/06/23 01:39:14;;;;;;;;;;;;;;;26.72;41.72;98481.31;2044705;28;19945;-72
2022/06/23 01:40:18;;;;;;;;;;;;;;;26.77;41.92;98480.53;2049141;28;19956;-72
2022/06/23 01:41:22;;;;;;;;;;;;;;;26.77;42.14;98477.81;2049784;28;19983;-72
2022/06/23 01:42:28;;;;;;;;;;;;;;;26.78;42.17;98484.09;2048620;28;20422;-72
2022/06/23 01:43:35;;;;;;;;;;;;;;;26.77;41.84;98480.53;2050704;28;19941;-72
2022/06/23 01:44:42;;;;;;;;;;;;;;;26.73;42.11;98484.88;2042290;28;19926;-73
2022/06/23 01:45:49;;;;;;;;;;;;;;;26.72;41.84;98485.94;2044874;28;19936;-72
2022/06/23 01:46:52;;;;;;;;;;;;;;;26.71;42.20;98489.72;2039942;28;19930;-72
2022/06/23 01:47:56;;;;;;;;;;;;;;;26.70;42.26;98491.63;2049193;28;20431;-72
2022/06/23 01:48:58;;;;;;;;;;;;;;;26.69;41.77;98489.16;2043927;28;20075;-72
2022/06/23 01:50:19;;;;;;;;;;;;;;;26.67;42.29;98488.63;2045841;28;19933;-72
2022/06/23 01:51:22;;;;;;;;;;;;;;;26.74;42.05;98491.94;2043854;28;19937;-72
2022/06/23 01:52:23;;;;;;;;;;;;;;;26.70;42.05;98488.09;2046510;28;20170;-72
2022/06/23 01:53:25;;;;;;;;;;;;;;;26.71;41.75;98493.28;2045970;28;19930;-73
2022/06/23 01:54:28;;;;;;;;;;;;;;;26.69;41.66;98490.00;2045616;28;19930;-73
2022/06/23 01:55:30;;;;;;;;;;;;;;;26.65;41.70;98493.50;2048107;28;20886;-72
2022/06/23 01:56:38;;;;;;;;;;;;;;;26.65;41.88;98493.50;2045656;28;19941;-73
2022/06/23 01:57:42;;;;;;;;;;;;;;;26.66;41.99;98492.41;2048074;28;20287;-73
2022/06/23 01:58:54;;;;;;;;;;;;;;;26.63;41.66;98501.09;2044210;28;19930;-72
2022/06/23 01:59:57;;;;;;;;;;;;;;;26.63;42.16;98501.91;2044305;28;19944;-72
2022/06/23 02:01:02;;;;;;;;;;;;;;;26.67;41.77;98497.59;2046574;28;20107;-71
2022/06/23 02:02:08;;;;;;;;;;;;;;;26.66;42.12;98497.84;2045628;28;19956;-72
2022/06/23 02:03:14;;;;;;;;;;;;;;;26.65;41.84;98499.75;2044310;28;20435;-73
2022/06/23 02:04:18;;;;;;;;;;;;;;;26.63;42.25;98504.63;2046087;28;19941;-71
2022/06/23 02:05:26;;;;;;;;;;;;;;;26.63;41.80;98501.09;2048965;28;20361;-71
2022/06/23 02:06:29;;;;;;;;;;;;;;;26.66;42.27;98506.84;2048288;28;19937;-72
2022/06/23 02:07:33;;;;;;;;;;;;;;;26.63;41.92;98501.91;2044853;28;21112;-73
2022/06/23 02:08:35;;;;;;;;;;;;;;;26.64;42.00;98500.84;2043979;28;19933;-72
2022/06/23 02:09:41;;;;;;;;;;;;;;;26.65;41.89;98498.94;2038572;28;19938;-71
2022/06/23 02:10:44;;;;;;;;;;;;;;;26.63;42.15;98506.53;2048385;28;19930;-72
2022/06/23 02:11:48;;;;;;;;;;;;;;;26.60;41.82;98499.72;2049795;28;19950;-72
2022/06/23 02:12:53;;;;;;;;;;;;;;;26.60;41.76;98496.19;2046396;28;19930;-71
2022/06/23 02:14:01;;;;;;;;;;;;;;;26.58;42.05;98493.72;2048235;28;19934;-72
2022/06/23 02:15:07;;;;;;;;;;;;;;;26.58;41.79;98492.88;2049314;28;19930;-72
2022/06/23 02:16:12;;;;;;;;;;;;;;;26.58;41.86;98498.31;2046346;28;19936;-72
2022/06/23 02:17:21;;;;;;;;;;;;;;;26.56;42.40;98493.16;2043762;28;20056;-72
2022/06/23 02:18:26;;;;;;;;;;;;;;;26.57;42.30;98492.06;2046403;28;19930;-72
2022/06/23 02:19:31;;;;;;;;;;;;;;;26.61;42.30;98493.22;2042849;28;21243;-71
2022/06/23 02:20:40;;;;;;;;;;;;;;;26.59;42.41;98486.38;2046017;28;19964;-71
2022/06/23 02:21:44;;;;;;;;;;;;;;;26.60;42.39;98485.28;2045165;28;19940;-72
2022/06/23 02:22:47;;;;;;;;;;;;;;;26.56;42.41;98478.75;2049005;28;20386;-71
2022/06/23 02:23:52;;;;;;;;;;;;;;;26.56;42.27;98486.91;2048590;28;20125;-72
2022/06/23 02:24:56;;;;;;;;;;;;;;;26.52;42.37;98487.44;2044380;28;20349;-72
2022/06/23 02:26:00;;;;;;;;;;;;;;;26.50;41.94;98488.72;2046575;28;19933;-73
2022/06/23 02:27:03;;;;;;;;;;;;;;;26.52;41.91;98487.44;2046461;28;19930;-72
2022/06/23 02:28:10;;;;;;;;;;;;;;;26.52;41.77;98487.44;2048301;28;19937;-72
2022/06/23 02:29:18;;;;;;;;;;;;;;;26.54;42.22;98483.63;2037705;28;19930;-72
2022/06/23 02:30:22;;;;;;;;;;;;;;;26.50;42.00;98481.41;2041241;28;21554;-71
2022/06/23 02:31:27;;;;;;;;;;;;;;;26.51;41.72;98477.63;2046495;28;19933;-72
2022/06/23 02:32:39;;;;;;;;;;;;;;;26.53;41.80;98485.53;2045986;28;19930;-72
2022/06/23 02:33:43;;;;;;;;;;;;;;;26.47;42.12;98476.47;2042972;28;19941;-73
2022/06/23 02:34:47;;;;;;;;;;;;;;;26.48;42.06;98485.44;2043323;28;19937;-73
2022/06/23 02:35:55;;;;;;;;;;;;;;;26.48;42.01;98472.66;2045950;28;20257;-72
2022/06/23 02:37:05;;;;;;;;;;;;;;;26.46;42.05;98477.53;2044479;28;20375;-72
2022/06/23 02:38:11;;;;;;;;;;;;;;;26.48;41.69;98477.28;2042814;28;20064;-72
2022/06/23 02:39:15;;;;;;;;;;;;;;;26.48;41.79;98474.56;2048779;28;19934;-72
2022/06/23 02:40:18;;;;;;;;;;;;;;;26.48;41.80;98469.13;2046679;28;20417;-71
2022/06/23 02:41:23;;;;;;;;;;;;;;;26.47;41.71;98476.47;2047189;28;20425;-72
2022/06/23 02:42:27;;;;;;;;;;;;;;;26.50;41.31;98475.97;2047232;28;19930;-72
2022/06/23 02:43:32;;;;;;;;;;;;;;;26.50;41.64;98475.97;2047151;28;19969;-72
2022/06/23 02:44:47;;;;;;;;;;;;;;;26.49;41.24;98477.03;2047853;28;20103;-72
2022/06/23 02:46:00;;;;;;;;;;;;;;;26.46;41.36;98480.25;2044786;28;19934;-72
2022/06/23 02:47:11;;;;;;;;;;;;;;;26.47;41.30;98472.94;2048268;28;19932;-72
2022/06/23 02:48:22;;;;;;;;;;;;;;;26.43;41.23;98469.09;2050577;28;19930;-72
2022/06/23 02:49:32;;;;;;;;;;;;;;;26.43;41.43;98474.53;2047911;28;19960;-72
2022/06/23 02:50:43;;;;;;;;;;;;;;;26.44;41.26;98473.44;2047688;28;20267;-71
2022/06/23 02:51:56;;;;;;;;;;;;;;;26.42;41.77;98473.69;2051091;28;20918;-72
2022/06/23 02:53:09;;;;;;;;;;;;;;;26.45;41.29;98473.19;2050552;28;19930;-71
2022/06/23 02:54:16;;;;;;;;;;;;;;;26.42;41.06;98473.69;2041758;28;19934;-71
2022/06/23 02:55:30;;;;;;;;;;;;;;;26.43;41.74;98466.38;2043799;28;21347;-71
2022/06/23 02:56:41;;;;;;;;;;;;;;;26.42;41.43;98460.09;2048207;28;20391;-72
2022/06/23 02:57:46;;;;;;;;;;;;;;;26.45;41.22;98458.78;2047575;28;20016;-72
2022/06/23 02:58:50;;;;;;;;;;;;;;;26.43;41.43;98467.19;2046370;28;19937;-72
2022/06/23 02:59:57;;;;;;;;;;;;;;;26.41;41.21;98461.19;2043203;28;20025;-71
2022/06/23 03:01:00;;;;;;;;;;;;;;;26.43;41.34;98459.03;2044759;28;20202;-72
2022/06/23 03:02:06;;;;;;;;;;;;;;;26.42;41.39;98462.81;2043847;28;20384;-72
2022/06/23 03:03:08;;;;;;;;;;;;;;;26.40;41.27;98462.25;2042333;28;20291;-71
2022/06/23 03:04:13;;;;;;;;;;;;;;;26.36;41.59;98458.44;2025146;28;21725;-71
2022/06/23 03:05:17;;;;;;;;;;;;;;;26.38;41.57;98450.81;2044475;28;19933;-72
2022/06/23 03:06:22;;;;;;;;;;;;;;;26.38;41.56;98450.81;2047303;28;20021;-71
2022/06/23 03:07:26;;;;;;;;;;;;;;;26.37;41.34;98451.91;2048532;28;19930;-72
2022/06/23 03:08:32;;;;;;;;;;;;;;;26.36;41.52;98446.75;2047648;28;19934;-72
2022/06/23 03:09:36;;;;;;;;;;;;;;;26.37;41.35;98451.91;2041595;28;20363;-71
2022/06/23 03:10:41;;;;;;;;;;;;;;;26.38;41.29;98450.81;2044865;28;20036;-72
2022/06/23 03:11:52;;;;;;;;;;;;;;;26.38;41.26;98444.56;2045360;28;19926;-72
2022/06/23 03:12:57;;;;;;;;;;;;;;;26.42;41.19;98449.22;2045567;28;19930;-72
2022/06/23 03:13:58;;;;;;;;;;;;;;;26.40;41.28;98443.22;2048028;28;19930;-72
2022/06/23 03:15:03;;;;;;;;;;;;;;;26.39;41.72;98446.22;2048446;28;20276;-73
2022/06/23 03:16:08;;;;;;;;;;;;;;;26.38;41.40;98442.66;2047337;28;19930;-72
2022/06/23 03:17:14;;;;;;;;;;;;;;;26.35;41.82;98448.63;2046279;28;20383;-72
2022/06/23 03:18:19;;;;;;;;;;;;;;;26.35;41.67;98455.97;2043765;28;19937;-73
2022/06/23 03:19:23;;;;;;;;;;;;;;;26.34;41.76;98457.84;2042842;28;19934;-73
2022/06/23 03:20:30;;;;;;;;;;;;;;;26.35;41.84;98456.78;2046436;28;20226;-73
2022/06/23 03:21:37;;;;;;;;;;;;;;;26.34;41.81;98455.16;2045976;28;20205;-73
2022/06/23 03:22:40;;;;;;;;;;;;;;;26.33;41.71;98458.94;2049647;28;19929;-74
2022/06/23 03:23:45;;;;;;;;;;;;;;;26.31;41.63;98450.22;2045515;28;19933;-74
2022/06/23 03:24:49;;;;;;;;;;;;;;;26.35;41.47;98462.22;2045510;28;19930;-74
2022/06/23 03:25:53;;;;;;;;;;;;;;;26.33;41.73;98456.22;2046700;28;19925;-72
2022/06/23 03:26:55;;;;;;;;;;;;;;;26.35;41.59;98461.41;2048184;28;19926;-72
2022/06/23 03:27:59;;;;;;;;;;;;;;;26.32;41.62;98459.19;2044421;28;21391;-73
2022/06/23 03:29:05;;;;;;;;;;;;;;;26.34;41.32;98462.47;2044357;28;19930;-73
2022/06/23 03:30:17;;;;;;;;;;;;;;;26.36;41.72;98463.88;2045363;28;19934;-73
2022/06/23 03:31:21;;;;;;;;;;;;;;;26.33;41.29;98475.25;2042625;28;19934;-72
2022/06/23 03:32:27;;;;;;;;;;;;;;;26.33;41.10;98467.09;2048696;28;19988;-71
2022/06/23 03:33:32;;;;;;;;;;;;;;;26.32;41.23;98473.59;2044416;28;19930;-71
2022/06/23 03:34:35;;;;;;;;;;;;;;;26.32;41.30;98472.78;2041535;28;19937;-71
2022/06/23 03:35:38;;;;;;;;;;;;;;;26.31;40.91;98480.13;2043636;28;19941;-72
2022/06/23 03:36:42;;;;;;;;;;;;;;;26.29;41.36;98474.94;2048352;28;20384;-70
2022/06/23 03:37:46;;;;;;;;;;;;;;;26.29;41.32;98474.13;2043235;28;20011;-71
2022/06/23 03:41:39;;;;;;;;;;;;;;;26.24;41.23;98472.19;2049542;28;19941;-72
2022/06/23 03:42:42;;;;;;;;;;;;;;;26.23;41.01;98470.53;2050630;28;19930;-71
2022/06/23 03:43:46;;;;;;;;;;;;;;;26.25;40.92;98465.66;2048551;28;19934;-73
2022/06/23 03:44:51;;;;;;;;;;;;;;;26.26;40.81;98470.03;2044892;28;19930;-71
2022/06/23 03:45:56;;;;;;;;;;;;;;;26.25;40.88;98476.53;2048124;28;20533;-72
2022/06/23 03:47:01;;;;;;;;;;;;;;;26.25;41.33;98470.28;2043733;28;20665;-72
2022/06/23 03:48:03;;;;;;;;;;;;;;;26.24;40.99;98483.06;2042781;28;19974;-71
2022/06/23 03:49:11;;;;;;;;;;;;;;;26.24;40.89;98480.34;2040370;28;20623;-71
2022/06/23 03:50:19;;;;;;;;;;;;;;;26.26;41.36;98485.50;2045881;28;19933;-71
2022/06/23 03:51:22;;;;;;;;;;;;;;;26.24;40.91;98487.66;2040842;28;20069;-71
2022/06/23 03:52:31;;;;;;;;;;;;;;;26.21;40.91;98477.31;2046592;28;20080;-72
2022/06/23 03:53:34;;;;;;;;;;;;;;;26.23;40.94;98483.31;2048323;28;19933;-71
2022/06/23 03:54:40;;;;;;;;;;;;;;;26.22;40.81;98479.78;2050533;28;19973;-71
2022/06/23 03:55:45;;;;;;;;;;;;;;;26.22;41.08;98481.69;2042931;28;19930;-72
2022/06/23 03:56:48;;;;;;;;;;;;;;;26.22;40.72;98482.50;2042580;28;20757;-71
2022/06/23 03:57:53;;;;;;;;;;;;;;;26.23;41.07;98481.41;2043706;28;19973;-70
2022/06/23 03:58:57;;;;;;;;;;;;;;;26.19;41.03;98474.06;2047148;28;19930;-71
2022/06/23 04:00:07;;;;;;;;;;;;;;;26.19;41.18;98480.31;2043747;28;20022;-70
2022/06/23 04:01:16;;;;;;;;;;;;;;;26.21;41.31;98478.13;2045388;28;19934;-72
2022/06/23 04:02:20;;;;;;;;;;;;;;;26.21;41.01;98478.13;2048352;28;19986;-72
2022/06/23 04:03:23;;;;;;;;;;;;;;;26.24;41.17;98471.34;2046643;28;19991;-72
2022/06/23 04:04:26;;;;;;;;;;;;;;;26.23;40.96;98480.59;2050674;28;19930;-73
2022/06/23 04:05:28;;;;;;;;;;;;;;;26.21;41.36;98482.75;2047563;28;20625;-73
2022/06/23 04:06:35;;;;;;;;;;;;;;;26.18;41.28;98475.09;2049075;28;19938;-72
2022/06/23 04:07:43;;;;;;;;;;;;;;;26.20;41.32;98481.13;2038070;28;19930;-72
2022/06/23 04:08:50;;;;;;;;;;;;;;;26.21;40.95;98477.31;2048893;28;20311;-72
2022/06/23 04:09:51;;;;;;;;;;;;;;;26.18;41.10;98480.53;2041224;28;20234;-72
2022/06/23 04:10:54;;;;;;;;;;;;;;;26.18;41.02;98475.91;2042269;28;19933;-72
2022/06/23 04:12:00;;;;;;;;;;;;;;;26.17;40.82;98476.19;2045284;28;19973;-72
2022/06/23 04:13:05;;;;;;;;;;;;;;;26.18;40.96;98481.34;2044920;28;19936;-73
2022/06/23 04:14:08;;;;;;;;;;;;;;;26.15;40.86;98491.94;2043232;28;19930;-71
2022/06/23 04:15:12;;;;;;;;;;;;;;;26.17;41.24;98492.50;2046837;28;19951;-72
2022/06/23 04:16:15;;;;;;;;;;;;;;;26.15;41.00;98491.94;2045474;28;19969;-73
2022/06/23 04:17:19;;;;;;;;;;;;;;;26.15;41.20;98495.47;2042664;28;20866;-72
2022/06/23 04:18:22;;;;;;;;;;;;;;;26.16;40.82;98490.84;2043843;28;19979;-73
2022/06/23 04:19:26;;;;;;;;;;;;;;;26.14;40.82;98495.75;2047159;28;20842;-72
2022/06/23 04:20:32;;;;;;;;;;;;;;;26.14;41.14;98493.03;2042750;28;20025;-73
2022/06/23 04:21:33;;;;;;;;;;;;;;;26.14;41.06;98498.47;2037196;28;20772;-72
2022/06/23 04:22:38;;;;;;;;;;;;;;;26.13;41.15;98500.31;2043161;28;20425;-73
2022/06/23 04:23:40;;;;;;;;;;;;;;;26.16;41.15;98501.72;2042650;28;19930;-72
2022/06/23 04:24:44;;;;;;;;;;;;;;;26.15;41.07;98497.38;2043366;28;19992;-72
2022/06/23 04:25:48;;;;;;;;;;;;;;;26.14;41.27;98495.75;2041428;28;19934;-73
2022/06/23 04:26:51;;;;;;;;;;;;;;;26.14;41.05;98503.91;2046170;28;20408;-72
2022/06/23 04:27:56;;;;;;;;;;;;;;;26.15;40.88;98508.25;2047179;28;19977;-73
2022/06/23 04:28:58;;;;;;;;;;;;;;;26.13;41.39;98507.66;2044361;28;20387;-72
2022/06/23 04:30:00;;;;;;;;;;;;;;;26.10;41.05;98508.19;2041305;28;19930;-73
2022/06/23 04:31:03;;;;;;;;;;;;;;;26.10;41.15;98509.00;2043300;28;21266;-73
2022/06/23 04:32:08;;;;;;;;;;;;;;;26.08;41.00;98503.84;2048856;28;19938;-72
2022/06/23 04:33:18;;;;;;;;;;;;;;;26.08;40.94;98503.84;2044587;28;20583;-72
2022/06/23 04:34:21;;;;;;;;;;;;;;;26.10;41.27;98500.03;2044322;28;19934;-72
2022/06/23 04:35:25;;;;;;;;;;;;;;;26.07;41.08;98494.03;2043433;28;19930;-72
2022/06/23 04:36:28;;;;;;;;;;;;;;;26.06;41.38;98491.56;2041722;28;20662;-73
2022/06/23 04:37:33;;;;;;;;;;;;;;;26.08;41.04;98495.69;2040823;28;20402;-73
2022/06/23 04:38:38;;;;;;;;;;;;;;;26.07;41.30;98496.75;2049223;28;19930;-72
2022/06/23 04:39:41;;;;;;;;;;;;;;;26.07;40.85;98498.66;2041164;28;19930;-73
2022/06/23 04:40:48;;;;;;;;;;;;;;;26.07;40.81;98502.19;2046621;28;19927;-72
2022/06/23 04:41:51;;;;;;;;;;;;;;;26.08;41.19;98500.31;2048599;28;19998;-72
2022/06/23 04:42:57;;;;;;;;;;;;;;;26.10;40.75;98506.28;2041850;28;20982;-72
2022/06/23 04:44:01;;;;;;;;;;;;;;;26.10;40.80;98497.31;2041638;28;19941;-72
2022/06/23 04:45:18;;;;;;;;;;;;;;;26.10;40.73;98494.59;2032284;28;19930;-72
2022/06/23 04:46:21;;;;;;;;;;;;;;;26.08;40.82;98497.59;2037910;28;20861;-72
2022/06/23 04:47:25;;;;;;;;;;;;;;;26.07;41.04;98499.47;2048010;28;19931;-72
2022/06/23 04:48:31;;;;;;;;;;;;;;;26.08;40.75;98495.69;2042628;28;19937;-72
2022/06/23 04:49:35;;;;;;;;;;;;;;;26.05;40.82;98501.63;2041813;28;21705;-72
2022/06/23 04:50:41;;;;;;;;;;;;;;;26.06;41.16;98505.97;2042712;28;20315;-72
2022/06/23 04:51:47;;;;;;;;;;;;;;;26.04;40.87;98499.97;2041074;28;19951;-72
2022/06/23 04:52:55;;;;;;;;;;;;;;;26.06;40.86;98497.81;2048938;28;20399;-72
2022/06/23 04:54:00;;;;;;;;;;;;;;;26.03;40.79;98501.06;2039059;28;20625;-73
2022/06/23 04:55:04;;;;;;;;;;;;;;;26.05;40.79;98500.81;2041602;28;19930;-72
2022/06/23 04:56:09;;;;;;;;;;;;;;;26.05;40.88;98500.81;2042045;28;19962;-72
2022/06/23 04:57:13;;;;;;;;;;;;;;;26.02;41.20;98504.88;2044055;28;19975;-71
2022/06/23 04:58:21;;;;;;;;;;;;;;;26.03;40.91;98514.66;2043759;28;19937;-73
2022/06/23 04:59:35;;;;;;;;;;;;;;;26.04;41.19;98513.56;2049899;28;19961;-72
2022/06/23 05:00:38;;;;;;;;;;;;;;;26.03;40.75;98522.81;2042564;28;19941;-72
2022/06/23 05:01:42;;;;;;;;;;;;;;;26.04;41.13;98520.91;2043096;28;20510;-72
2022/06/23 05:02:47;;;;;;;;;;;;;;;26.03;40.74;98528.25;2044741;28;19934;-72
2022/06/23 05:03:51;;;;;;;;;;;;;;;26.04;40.66;98526.34;2039703;28;19934;-72
2022/06/23 05:04:54;;;;;;;;;;;;;;;26.05;40.78;98528.81;2044029;28;19933;-72
2022/06/23 05:06:00;;;;;;;;;;;;;;;26.06;41.35;98533.16;2041619;28;20015;-71
2022/06/23 05:07:01;;;;;;;;;;;;;;;26.16;40.84;98528.91;2042887;28;19934;-73
2022/06/23 05:08:06;;;;;;;;;;;;;;;26.26;40.85;98539.88;2041656;28;20676;-73
2022/06/23 05:09:11;;;;;;;;;;;;;;;26.38;41.08;98545.97;2048649;28;20314;-73
2022/06/23 05:10:16;;;;;;;;;;;;;;;26.46;41.00;98550.16;2051810;28;19929;-73
2022/06/23 05:11:21;;;;;;;;;;;;;;;26.51;41.01;98542.88;2051139;28;20839;-73
2022/06/23 05:12:25;;;;;;;;;;;;;;;26.58;41.18;98541.84;2052712;28;20468;-73
2022/06/23 05:13:28;;;;;;;;;;;;;;;26.64;41.23;98546.28;2052555;28;19930;-73
2022/06/23 05:14:34;;;;;;;;;;;;;;;26.67;40.82;98540.31;2053147;28;19934;-73
2022/06/23 05:15:37;;;;;;;;;;;;;;;26.70;40.90;98540.63;2052998;28;20387;-73
2022/06/23 05:16:41;;;;;;;;;;;;;;;26.75;41.39;98542.56;2052323;28;20510;-73
2022/06/23 05:17:48;;;;;;;;;;;;;;;26.77;41.15;98543.09;2052294;28;20388;-73
2022/06/23 05:18:51;;;;;;;;;;;;;;;26.80;41.68;98545.34;2048739;28;20322;-73
2022/06/23 05:19:54;;;;;;;;;;;;;;;26.83;41.66;98542.09;2043821;28;20093;-72
2022/06/23 05:20:56;;;;;;;;;;;;;;;26.84;41.80;98535.56;2041900;28;19930;-72
2022/06/23 05:22:00;;;;;;;;;;;;;;;26.88;41.96;98542.09;2041648;28;19930;-72
2022/06/23 05:23:02;;;;;;;;;;;;;;;26.91;42.47;98538.03;2040457;28;19930;-71
2022/06/23 05:24:05;;;;;;;;;;;;;;;26.93;42.67;98544.06;2042954;28;20012;-71
2022/06/23 05:25:10;;;;;;;;;;;;;;;26.95;42.46;98542.72;2039028;28;20481;-72
2022/06/23 05:26:14;;;;;;;;;;;;;;;26.98;42.98;98546.00;2042030;28;20121;-69
2022/06/23 05:27:18;;;;;;;;;;;;;;;27.00;43.18;98558.28;2035220;28;20030;-69
2022/06/23 05:28:23;;;;;;;;;;;;;;;27.02;43.31;98555.28;2039169;28;20523;-69
2022/06/23 05:29:26;;;;;;;;;;;;;;;27.03;43.37;98562.38;2041725;28;19929;-69
2022/06/23 05:30:29;;;;;;;;;;;;;;;27.04;43.91;98558.56;2038897;28;19934;-71
2022/06/23 05:31:33;;;;;;;;;;;;;;;27.05;43.58;98561.03;2038559;28;20103;-72
2022/06/23 05:32:38;;;;;;;;;;;;;;;27.07;43.88;98560.75;2045569;28;20525;-71
2022/06/23 05:33:43;;;;;;;;;;;;;;;27.08;44.11;98560.50;2041731;28;20521;-72
2022/06/23 05:34:49;;;;;;;;;;;;;;;27.10;44.36;98561.06;2036595;28;20463;-71
2022/06/23 05:35:50;;;;;;;;;;;;;;;27.12;44.63;98563.53;2038363;28;22227;-75
2022/06/23 05:36:57;;;;;;;;;;;;;;;27.14;44.58;98562.19;2039892;28;19941;-75
2022/06/23 05:38:01;;;;;;;;;;;;;;;27.15;44.48;98563.81;2035660;28;19990;-77
2022/06/23 05:39:04;;;;;;;;;;;;;;;27.17;44.61;98566.31;2035964;28;21790;-74
2022/06/23 05:40:13;;;;;;;;;;;;;;;27.17;44.72;98560.88;2046689;28;20281;-74
2022/06/23 05:41:18;;;;;;;;;;;;;;;27.20;44.51;98549.47;2042621;28;19953;-76
2022/06/23 05:42:21;;;;;;;;;;;;;;;27.20;44.79;98543.19;2046674;28;20726;-76